METAR Formatted Surface Weather Observation
Issued by NWS

Current Version | Previous Version | Text Only | Print | Product List | Glossary On
Versions: 1 2 3 4 5 6 7 8 9 10 11 12 13 14 15 16 17 18 19 20 21 22 23 24 25 26 27 28 29 30 31 32 33 34 35 36 37 38 39 40 41 42 43 44 45 46 47 48 49 50
000
SAUS44 KLZK 301056
MTRMWT
METAR KMWT 301053Z AUTO 00000KT 7SM -RA SCT120 20/19 A3009 RMK AO2
RAB49 SLP178 P0000 T02000189



USA.gov is the U.S. government's official web portal to all federal, state and local government web resources and services.